Time;durP1;ratioP1;P1;durP2;ratioP2;P2;SDS_P1;SDS_P2;PMS_P1;PMS_P2;Temp;Humidity;BMP_temperature;BMP_pressure;BME280_temperature;BME280_humidity;BME280_pressure;Samples;Min_cycle;Max_cycle;Signal;HPM_P1;HPM_P2
2022/06/08 00:01:20;;;;;;;19.77;17.67;;;;;;;14.89;100.00;101080.72;5073418;28;20483;-36
2022/06/08 00:03:56;;;;;;;18.88;16.92;;;;;;;14.82;100.00;101076.53;5073459;28;20424;-35
2022/06/08 00:06:21;;;;;;;19.50;17.40;;;;;;;14.84;100.00;101072.50;5074000;28;20366;-35
2022/06/08 00:08:47;;;;;;;19.70;17.70;;;;;;;14.75;100.00;101074.00;5071831;28;20031;-36
2022/06/08 00:11:13;;;;;;;;;;;;;;;14.92;100.00;101071.19;5073921;28;20033;-36
2022/06/08 00:13:40;;;;;;;18.83;16.55;;;;;;;14.77;100.00;101058.22;5073084;28;20269;-36
2022/06/08 00:16:06;;;;;;;18.60;16.60;;;;;;;14.83;100.00;101062.66;5073352;28;20108;-35
2022/06/08 00:18:32;;;;;;;21.23;19.00;;;;;;;14.79;100.00;101058.00;5073259;28;20025;-36
2022/06/08 00:20:57;;;;;;;19.65;17.58;;;;;;;14.82;100.00;101058.28;5073780;28;20132;-35
2022/06/08 00:23:22;;;;;;;19.95;17.88;;;;;;;14.77;100.00;101065.56;5072943;28;20033;-35
2022/06/08 00:25:48;;;;;;;;;;;;;;;14.90;100.00;101062.47;5073965;28;20032;-36
2022/06/08 00:28:14;;;;;;;19.97;17.87;;;;;;;14.77;100.00;101058.22;5073488;28;19912;-35
2022/06/08 00:30:40;;;;;;;20.90;18.67;;;;;;;14.74;100.00;101036.13;5072893;28;20032;-35
2022/06/08 00:33:05;;;;;;;21.55;19.30;;;;;;;14.74;100.00;101052.47;5073102;28;20031;-36
2022/06/08 00:35:30;;;;;;;;;;;;;;;14.86;100.00;101050.44;5073838;28;20028;-36
2022/06/08 00:37:56;;;;;;;21.70;19.30;;;;;;;14.73;100.00;101050.81;5073267;28;20010;-36
2022/06/08 00:40:28;;;;;;;20.80;18.80;;;;;;;14.70;100.00;101049.44;5073033;28;20739;-35
2022/06/08 00:42:53;;;;;;;20.15;18.02;;;;;;;14.65;100.00;101035.78;5073027;28;20056;-36
2022/06/08 00:45:22;;;;;;;21.80;19.60;;;;;;;14.56;100.00;101032.66;5072794;28;20497;-35
2022/06/08 00:47:55;;;;;;;20.90;18.85;;;;;;;14.58;100.00;101022.34;5073334;28;20033;-35
2022/06/08 00:50:26;;;;;;;20.08;18.08;;;;;;;14.52;100.00;101025.25;5073093;28;20036;-36
2022/06/08 00:52:53;;;;;;;20.52;18.48;;;;;;;14.60;100.00;101033.00;5073233;28;20495;-35
2022/06/08 00:55:22;;;;;;;19.92;17.92;;;;;;;14.55;100.00;101024.75;5073013;28;20085;-36
2022/06/08 00:57:55;;;;;;;21.05;18.83;;;;;;;14.49;100.00;101021.13;5073884;28;20043;-35
2022/06/08 01:00:38;;;;;;;20.27;18.20;;;;;;;14.53;100.00;101025.00;5077764;28;20043;-35
2022/06/08 01:03:05;;;;;;;21.48;18.77;;;;;;;14.46;100.00;101026.25;5076597;28;20127;-36
2022/06/08 01:05:38;;;;;;;22.27;20.02;;;;;;;14.49;100.00;101018.41;5076497;28;20029;-35
2022/06/08 01:08:18;;;;;;;22.10;19.80;;;;;;;14.45;100.00;101017.25;5077078;28;20032;-35
2022/06/08 01:10:47;;;;;;;20.33;18.23;;;;;;;14.40;100.00;101017.19;5077014;28;20453;-36
2022/06/08 01:13:12;;;;;;;18.42;16.63;;;;;;;14.45;100.00;101017.25;5076478;28;20052;-35
2022/06/08 01:15:40;;;;;;;20.58;18.58;;;;;;;14.39;100.00;101005.47;5076430;28;20121;-36
2022/06/08 01:18:06;;;;;;;19.63;17.73;;;;;;;14.33;100.00;100997.50;5076668;28;20028;-36
2022/06/08 01:20:32;;;;;;;;;;;;;;;14.49;100.00;101004.81;5077342;28;20108;-35
2022/06/08 01:22:57;;;;;;;20.40;18.40;;;;;;;14.28;100.00;101000.97;5076688;28;20003;-35
2022/06/08 01:25:25;;;;;;;20.17;18.20;;;;;;;14.22;100.00;100990.28;5076319;28;20020;-36
2022/06/08 01:28:19;;;;;;;20.45;18.45;;;;;;;14.28;100.00;100992.81;5077112;28;20028;-35
2022/06/08 01:30:58;;;;;;;21.48;19.20;;;;;;;14.24;100.00;100988.94;5076186;28;20423;-35
2022/06/08 01:33:55;;;;;;;21.88;19.63;;;;;;;14.22;100.00;100987.56;5076973;28;20029;-35
2022/06/08 01:37:07;;;;;;;18.02;16.27;;;;;;;14.24;100.00;100980.78;5076083;28;20054;-35
2022/06/08 01:39:41;;;;;;;21.15;19.05;;;;;;;14.20;100.00;100978.81;5053978;28;20086;-35
2022/06/08 01:42:11;;;;;;;19.38;17.38;;;;;;;14.17;100.00;100970.09;5053909;28;20079;-35
2022/06/08 01:47:55;;;;;;;20.52;18.40;;;;;;;14.12;100.00;100966.50;5054187;28;20385;-35
2022/06/08 01:50:31;;;;;;;19.70;17.75;;;;;;;14.06;100.00;100971.03;5037107;28;20261;-35
2022/06/08 01:53:10;;;;;;;20.33;18.42;;;;;;;13.97;100.00;100937.19;5054245;28;20049;-35
2022/06/08 01:56:03;;;;;;;20.00;18.02;;;;;;;14.06;100.00;100953.91;5054380;28;20029;-35
2022/06/08 01:58:44;;;;;;;20.42;18.38;;;;;;;13.94;100.00;100948.56;5053505;28;20033;-35
2022/06/08 02:01:18;;;;;;;21.15;19.08;;;;;;;14.02;100.00;100950.88;5054032;28;20032;-35
2022/06/08 02:03:57;;;;;;;20.13;18.23;;;;;;;13.89;100.00;100937.63;5053640;28;20481;-35
2022/06/08 02:07:05;;;;;;;18.63;16.90;;;;;;;13.95;100.00;100936.63;5053708;28;20037;-35
2022/06/08 02:09:47;;;;;;;20.20;18.17;;;;;;;13.85;100.00;100928.31;5049368;28;20049;-36
2022/06/08 02:12:14;;;;;;;19.55;17.73;;;;;;;13.87;100.00;100937.06;5053798;28;20036;-35
2022/06/08 02:14:49;;;;;;;19.75;17.73;;;;;;;13.78;100.00;100920.34;5053244;28;20134;-35
2022/06/08 02:17:26;;;;;;;19.75;17.85;;;;;;;13.81;100.00;100925.31;5055826;28;20033;-35
2022/06/08 02:19:56;;;;;;;20.48;18.40;;;;;;;13.74;100.00;100904.81;5055832;28;20134;-35
2022/06/08 02:22:29;;;;;;;20.17;18.25;;;;;;;13.87;100.00;100910.69;5056360;28;20025;-35
2022/06/08 02:25:13;;;;;;;20.25;18.25;;;;;;;13.82;100.00;100913.34;5055568;28;20064;-35
2022/06/08 02:27:52;;;;;;;20.73;18.83;;;;;;;13.79;100.00;100902.16;5055679;28;20082;-35
2022/06/08 02:30:22;;;;;;;19.90;17.95;;;;;;;13.74;100.00;100902.91;5055324;28;20025;-35
2022/06/08 02:35:51;;;;;;;20.30;18.30;;;;;;;13.75;100.00;100887.41;5055286;28;20048;-35
2022/06/08 02:38:22;;;;;;;19.25;17.33;;;;;;;13.70;100.00;100892.78;5055169;28;20123;-35
2022/06/08 02:40:53;;;;;;;19.45;17.65;;;;;;;13.77;100.00;100893.44;5055164;28;20087;-35
2022/06/08 02:44:05;;;;;;;20.42;18.33;;;;;;;13.75;100.00;100887.41;5055414;28;20021;-35
2022/06/08 02:47:01;;;;;;;20.05;18.08;;;;;;;13.71;100.00;100880.84;5055106;28;20471;-35
2022/06/08 02:49:28;;;;;;;18.73;16.92;;;;;;;13.68;100.00;100884.88;5054680;28;20025;-35
2022/06/08 02:51:58;;;;;;;19.15;17.13;;;;;;;13.56;100.00;100876.81;5061944;28;20053;-35
2022/06/08 02:54:26;;;;;;;20.25;18.00;;;;;;;13.53;100.00;100880.06;5075191;28;20087;-35
2022/06/08 02:56:54;;;;;;;19.80;17.83;;;;;;;13.54;100.00;100884.41;5074821;28;20178;-35
2022/06/08 02:59:46;;;;;;;18.70;16.77;;;;;;;13.53;100.00;100884.66;5074019;28;20162;-35
2022/06/08 03:02:21;;;;;;;17.67;15.98;;;;;;;13.48;100.00;100871.84;5074502;28;20047;-35
2022/06/08 03:04:49;;;;;;;18.13;16.45;;;;;;;13.48;100.00;100877.28;5074949;28;20055;-35
2022/06/08 03:07:18;;;;;;;17.15;15.55;;;;;;;13.46;100.00;100879.41;5074912;28;20028;-35
2022/06/08 03:09:45;;;;;;;17.73;15.93;;;;;;;13.43;100.00;100860.91;5075056;28;20051;-36
2022/06/08 03:12:24;;;;;;;16.58;14.82;;;;;;;13.25;100.00;100831.28;5075487;28;20354;-37
2022/06/08 03:14:50;;;;;;;16.63;14.98;;;;;;;13.43;100.00;100857.38;5075001;28;20033;-36
2022/06/08 03:17:18;;;;;;;15.90;14.40;;;;;;;13.37;100.00;100842.84;5074874;28;20024;-37
2022/06/08 03:19:44;;;;;;;15.95;14.38;;;;;;;13.42;100.00;100861.13;5074106;28;20032;-37
2022/06/08 03:22:09;;;;;;;;;;;;;;;13.58;100.00;100861.13;5074550;28;20043;-36
2022/06/08 03:24:34;;;;;;;15.18;13.68;;;;;;;13.47;100.00;100872.06;5074468;28;19908;-37
2022/06/08 03:27:04;;;;;;;15.73;14.13;;;;;;;13.51;100.00;100862.34;5075009;28;20115;-36
2022/06/08 03:29:31;;;;;;;14.95;13.55;;;;;;;13.45;100.00;100864.19;5074624;28;20036;-36
2022/06/08 03:31:57;;;;;;;14.98;13.45;;;;;;;13.37;100.00;100865.44;5074620;28;20031;-36
2022/06/08 03:34:22;;;;;;;;;;;;;;;13.55;100.00;100868.94;5074716;28;20426;-37
2022/06/08 03:36:48;;;;;;;14.10;12.70;;;;;;;13.38;100.00;100856.22;5074664;28;19915;-35
2022/06/08 03:39:14;;;;;;;14.60;13.20;;;;;;;13.37;100.00;100864.59;5073858;28;20082;-35
2022/06/08 03:41:39;;;;;;;15.45;13.18;;;;;;;13.39;100.00;100866.00;5073681;28;20396;-35
2022/06/08 03:44:05;;;;;;;13.60;12.20;;;;;;;13.31;100.00;100858.25;5074286;28;20036;-35
2022/06/08 03:46:38;;;;;;;14.90;13.38;;;;;;;13.41;100.00;100863.03;5074353;28;20070;-35
2022/06/08 03:49:06;;;;;;;14.93;13.38;;;;;;;13.48;100.00;100865.59;5073776;28;20029;-35
2022/06/08 03:51:31;;;;;;;12.98;11.68;;;;;;;13.54;100.00;100861.88;5072847;28;20452;-35
2022/06/08 03:54:02;;;;;;;;;;;;;;;13.67;100.00;100864.22;5074645;28;20063;-35
2022/06/08 03:56:30;;;;;;;12.43;11.20;;;;;;;13.67;100.00;100871.56;5073874;28;19954;-35
2022/06/08 03:58:56;;;;;;;12.40;11.25;;;;;;;13.67;100.00;100872.38;5073492;28;20108;-35
2022/06/08 04:01:22;;;;;;;12.27;11.07;;;;;;;13.61;100.00;100866.03;5073776;28;20476;-35
2022/06/08 04:03:50;;;;;;;12.95;11.65;;;;;;;13.71;100.00;100876.22;5073469;28;20024;-35
2022/06/08 04:06:16;;;;;;;12.43;11.00;;;;;;;13.73;100.00;100867.84;5073669;28;20024;-35
2022/06/08 04:08:42;;;;;;;12.20;11.00;;;;;;;13.82;100.00;100869.03;5073149;28;20082;-35
2022/06/08 04:11:07;;;;;;;10.70;9.70;;;;;;;13.88;100.00;100857.97;5073059;28;20032;-35
2022/06/08 04:13:33;;;;;;;12.05;10.77;;;;;;;13.89;100.00;100859.63;5073329;28;20341;-35
2022/06/08 04:16:01;;;;;;;11.15;9.90;;;;;;;13.91;100.00;100854.75;5074078;28;20040;-35
2022/06/08 04:18:27;;;;;;;11.50;10.38;;;;;;;13.91;100.00;100857.47;5104885;28;20484;-35
2022/06/08 04:20:55;;;;;;;9.98;9.05;;;;;;;13.99;100.00;100842.59;5073813;28;20039;-35
2022/06/08 04:23:23;;;;;;;11.73;9.27;;;;;;;13.91;100.00;100835.72;5073189;28;20036;-35
2022/06/08 04:25:49;;;;;;;10.43;9.43;;;;;;;14.00;100.00;100844.25;5073231;28;20025;-35
2022/06/08 04:28:15;;;;;;;;;;;;;;;14.13;100.00;100843.03;5073562;28;20035;-35
2022/06/08 04:30:40;;;;;;;9.35;7.78;;;;;;;14.07;100.00;100842.16;5073490;28;20327;-35
2022/06/08 04:33:06;;;;;;;9.18;8.32;;;;;;;14.09;100.00;100845.44;5073435;28;20117;-35
2022/06/08 04:35:32;;;;;;;9.43;8.45;;;;;;;14.16;100.00;100850.72;5073120;28;20024;-35
2022/06/08 04:37:59;;;;;;;10.60;8.63;;;;;;;14.15;100.00;100852.59;5073069;28;20029;-35
2022/06/08 04:40:25;;;;;;;9.02;8.23;;;;;;;14.10;100.00;100838.09;5073029;28;20028;-35
2022/06/08 04:42:51;;;;;;;;;;;;;;;14.31;100.00;100850.06;5074209;28;20043;-35
2022/06/08 04:45:16;;;;;;;10.73;7.88;;;;;;;14.22;100.00;100844.25;5072949;28;20355;-35
2022/06/08 04:47:42;;;;;;;7.93;7.22;;;;;;;14.25;100.00;100837.44;5073231;28;20033;-35
2022/06/08 04:50:07;;;;;;;;;;;;;;;14.39;100.00;100825.91;5073250;28;20028;-35
2022/06/08 04:52:34;;;;;;;8.52;7.63;;;;;;;14.37;100.00;100822.63;5072716;28;19916;-35
2022/06/08 04:54:59;;;;;;;8.13;7.43;;;;;;;14.48;100.00;100822.78;5073687;28;20426;-35
2022/06/08 04:57:25;;;;;;;9.00;7.90;;;;;;;14.54;100.00;100816.28;5071289;28;20123;-35
2022/06/08 04:59:50;;;;;;;8.05;7.25;;;;;;;14.55;100.00;100821.50;5072856;28;20044;-35
2022/06/08 05:02:42;;;;;;;7.43;6.83;;;;;;;14.60;100.00;100815.28;5072978;28;20032;-35
2022/06/08 05:05:01;;;;;;;7.65;6.93;;;;;;;14.59;100.00;100809.03;5073185;28;20282;-35
2022/06/08 05:07:27;;;;;;;6.70;5.95;;;;;;;14.65;100.00;100821.59;5073087;28;20401;-35
2022/06/08 05:09:52;;;;;;;8.17;6.30;;;;;;;14.61;100.00;100806.84;5073616;28;20033;-35
2022/06/08 05:12:17;;;;;;;7.23;5.90;;;;;;;14.62;100.00;100808.47;5072805;28;20306;-35
2022/06/08 05:14:43;;;;;;;6.32;5.68;;;;;;;14.75;100.00;100809.16;5072782;28;20805;-35
2022/06/08 05:17:08;;;;;;;6.75;5.63;;;;;;;14.83;100.00;100816.81;5072836;28;20031;-35
2022/06/08 05:19:33;;;;;;;6.93;5.75;;;;;;;14.85;100.00;100811.94;5073512;28;20138;-35
2022/06/08 05:21:59;;;;;;;5.75;5.22;;;;;;;14.86;100.00;100799.97;5073113;28;20082;-35
2022/06/08 05:24:24;;;;;;;;;;;;;;;14.96;100.00;100804.69;5072610;28;20170;-35
2022/06/08 05:26:49;;;;;;;5.15;4.47;;;;;;;14.85;100.00;100785.53;5073500;28;19955;-35
2022/06/08 05:29:15;;;;;;;;;;;;;;;14.98;100.00;100788.88;5073069;28;20503;-35
2022/06/08 05:31:40;;;;;;;5.27;4.43;;;;;;;14.87;100.00;100788.00;5072498;28;19927;-35
2022/06/08 05:34:05;;;;;;;;;;;;;;;14.98;100.00;100781.53;5073187;28;20048;-35
2022/06/08 05:36:31;;;;;;;4.87;4.47;;;;;;;14.91;100.00;100783.69;5073013;28;19909;-35
2022/06/08 05:38:56;;;;;;;4.50;4.07;;;;;;;14.90;100.00;100779.31;5072547;28;20271;-35
2022/06/08 05:41:21;;;;;;;4.90;4.32;;;;;;;14.89;100.00;100781.22;5072480;28;20355;-35
2022/06/08 05:43:46;;;;;;;;;;;;;;;15.00;100.00;100771.22;5074093;28;20029;-35
2022/06/08 05:46:12;;;;;;;5.87;4.70;;;;;;;14.96;100.00;100761.94;5075097;28;19915;-35
2022/06/08 05:48:37;;;;;;;5.15;4.45;;;;;;;14.97;100.00;100765.47;5076096;28;20266;-35
2022/06/08 05:51:03;;;;;;;5.57;4.45;;;;;;;14.95;100.00;100757.56;5076340;28;20070;-35
2022/06/08 05:53:28;;;;;;;4.78;4.32;;;;;;;15.00;100.00;100748.63;5076338;28;20430;-35
2022/06/08 05:55:53;;;;;;;6.95;4.10;;;;;;;15.06;100.00;100756.53;5076263;28;20093;-35
2022/06/08 05:58:19;;;;;;;;;;;;;;;15.17;100.00;100755.53;5076566;28;20354;-35
2022/06/08 06:00:44;;;;;;;6.87;4.73;;;;;;;15.09;100.00;100756.03;5075898;28;20285;-35
2022/06/08 06:03:10;;;;;;;;;;;;;;;15.21;100.00;100761.25;5076401;28;20029;-35
2022/06/08 06:05:39;;;;;;;7.18;5.10;;;;;;;15.17;100.00;100747.34;5075843;28;19912;-35
2022/06/08 06:08:05;;;;;;;5.38;4.88;;;;;;;15.22;100.00;100754.72;5075630;28;20393;-35
2022/06/08 06:10:34;;;;;;;5.53;4.93;;;;;;;15.24;100.00;100736.22;5075616;28;20036;-35
2022/06/08 06:12:59;;;;;;;6.18;4.88;;;;;;;15.33;100.00;100740.09;5076348;28;20028;-35
2022/06/08 06:15:25;;;;;;;5.95;4.63;;;;;;;15.38;100.00;100729.22;5075590;28;20032;-35
2022/06/08 06:17:51;;;;;;;5.30;4.78;;;;;;;15.38;100.00;100734.66;5075537;28;20033;-35
2022/06/08 06:20:17;;;;;;;5.30;4.38;;;;;;;15.42;100.00;100735.78;5075462;28;20032;-35
2022/06/08 06:22:42;;;;;;;;;;;;;;;15.56;100.00;100738.00;5075931;28;20510;-35
2022/06/08 06:25:10;;;;;;;5.33;4.40;;;;;;;15.49;100.00;100746.44;5075590;28;19955;-35
2022/06/08 06:27:35;;;;;;;4.20;3.80;;;;;;;15.45;100.00;100734.41;5075006;28;20304;-35
2022/06/08 06:30:02;;;;;;;7.43;4.60;;;;;;;15.55;100.00;100739.09;5075013;28;20024;-35
2022/06/08 06:32:30;;;;;;;4.82;4.07;;;;;;;15.58;100.00;100744.03;5075213;28;20036;-35
2022/06/08 06:34:58;;;;;;;5.65;4.43;;;;;;;15.59;100.00;100740.19;5074802;28;20032;-35
2022/06/08 06:37:25;;;;;;;5.07;4.20;;;;;;;15.62;100.00;100737.78;5075406;28;20036;-35
2022/06/08 06:39:51;;;;;;;4.15;3.72;;;;;;;15.60;100.00;100748.09;5074966;28;20075;-35
2022/06/08 06:42:20;;;;;;;4.85;3.97;;;;;;;15.53;100.00;100735.81;5075228;28;20033;-35
2022/06/08 06:44:45;;;;;;;7.15;3.63;;;;;;;15.63;100.00;100744.03;5074948;28;20036;-35
2022/06/08 06:47:11;;;;;;;5.05;3.35;;;;;;;15.63;100.00;100744.88;5075480;28;20033;-35
2022/06/08 06:49:36;;;;;;;;;;;;;;;15.79;100.00;100753.94;5075774;28;20057;-35
2022/06/08 06:52:02;;;;;;;4.43;3.80;;;;;;;15.68;100.00;100734.00;5074662;28;19917;-35
2022/06/08 06:54:28;;;;;;;;;;;;;;;15.89;100.00;100743.06;5075470;28;20414;-35
2022/06/08 06:56:53;;;;;;;4.57;2.90;;;;;;;15.87;100.00;100739.78;5075128;28;19923;-35
2022/06/08 06:59:18;;;;;;;4.37;3.20;;;;;;;16.01;100.00;100726.47;5073574;28;20266;-36
2022/06/08 07:01:43;;;;;;;4.13;3.38;;;;;;;16.04;100.00;100717.72;5074751;28;20717;-36
2022/06/08 07:04:09;;;;;;;;;;;;;;;16.29;100.00;100722.38;5075043;28;20115;-36
2022/06/08 07:06:34;;;;;;;4.03;3.10;;;;;;;16.36;100.00;100722.94;5074323;28;19912;-36
2022/06/08 07:08:59;;;;;;;5.47;2.50;;;;;;;16.50;100.00;100719.69;5074540;28;20314;-36
2022/06/08 07:14:20;;;;;;;5.07;2.38;;;;;;;16.74;100.00;100720.78;5052155;28;19917;-35
2022/06/08 07:16:47;;;;;;;3.95;2.30;;;;;;;16.72;100.00;100710.13;5052749;28;20120;-36
2022/06/08 07:19:13;;;;;;;3.17;2.30;;;;;;;16.86;100.00;100717.75;5051982;28;20115;-36
2022/06/08 07:21:40;;;;;;;3.35;2.03;;;;;;;16.93;100.00;100710.09;5052091;28;20120;-36
2022/06/08 07:24:06;;;;;;;4.97;2.40;;;;;;;17.00;99.18;100713.34;5051925;28;20068;-36
2022/06/08 07:26:32;;;;;;;4.05;2.30;;;;;;;16.93;96.95;100699.16;5052212;28;20037;-35
2022/06/08 07:28:57;;;;;;;;;;;;;;;17.13;98.82;100714.69;5052542;28;20399;-36
2022/06/08 07:31:24;;;;;;;4.97;2.20;;;;;;;17.08;97.06;100712.81;5051767;28;20373;-36
2022/06/08 07:33:50;;;;;;;3.95;2.17;;;;;;;17.19;97.31;100708.13;5051538;28;20458;-36
2022/06/08 07:36:16;;;;;;;;;;;;;;;17.35;98.16;100706.16;5052161;28;20120;-35
2022/06/08 07:38:41;;;;;;;5.90;2.78;;;;;;;17.32;96.52;100707.50;5051925;28;19912;-36
2022/06/08 07:41:07;;;;;;;;;;;;;;;17.51;98.08;100688.56;5051822;28;20032;-36
2022/06/08 07:43:32;;;;;;;3.25;1.85;;;;;;;17.52;94.25;100701.16;5051280;28;19917;-36
2022/06/08 07:45:57;;;;;;;;;;;;;;;17.66;95.98;100696.69;5051843;28;20392;-36
2022/06/08 07:51:06;;;;;;;4.35;2.13;;;;;;;17.78;93.09;100682.72;5066042;28;20343;-36
2022/06/08 07:53:34;;;;;;;4.78;2.40;;;;;;;17.91;91.51;100697.66;5073450;28;20101;-36
2022/06/08 07:55:59;;;;;;;5.18;2.00;;;;;;;17.92;92.57;100683.72;5073484;28;20036;-36
2022/06/08 07:58:25;;;;;;;;;;;;;;;18.10;93.72;100698.63;5074018;28;20023;-36
2022/06/08 08:00:50;;;;;;;3.72;1.98;;;;;;;17.91;91.53;100689.47;5073972;28;19966;-36
2022/06/08 08:03:18;;;;;;;;;;;;;;;18.05;93.36;100701.41;5073894;28;20047;-36
2022/06/08 08:05:45;;;;;;;6.60;2.92;;;;;;;17.81;91.47;100697.72;5073480;28;19908;-36
2022/06/08 08:08:11;;;;;;;5.50;2.28;;;;;;;17.88;92.20;100703.72;5072820;28;20085;-36
2022/06/08 08:10:37;;;;;;;4.32;1.90;;;;;;;17.89;90.66;100713.56;5073406;28;20032;-36
2022/06/08 08:13:02;;;;;;;;;;;;;;;17.98;91.29;100706.41;5072947;28;20025;-36
2022/06/08 08:15:28;;;;;;;6.38;2.80;;;;;;;17.88;91.37;100706.47;5073147;28;20357;-36
2022/06/08 08:17:53;;;;;;;;;;;;;;;18.01;92.97;100697.63;5073753;28;20033;-36
2022/06/08 08:20:19;;;;;;;6.43;2.10;;;;;;;17.97;91.79;100702.03;5073049;28;19916;-36
2022/06/08 08:22:46;;;;;;;4.53;2.00;;;;;;;18.00;91.09;100691.31;5073272;28;20450;-36
2022/06/08 08:25:12;;;;;;;4.45;1.88;;;;;;;18.01;92.16;100675.75;5073042;28;20032;-36
2022/06/08 08:27:38;;;;;;;;;;;;;;;18.21;92.03;100697.47;5073727;28;20028;-36
2022/06/08 08:30:04;;;;;;;4.68;2.00;;;;;;;18.07;89.33;100684.72;5073024;28;20041;-36
2022/06/08 08:32:30;;;;;;;3.78;1.65;;;;;;;18.14;89.66;100698.88;5073103;28;20421;-36
2022/06/08 08:34:55;;;;;;;;;;;;;;;18.24;90.68;100691.41;5073634;28;20110;-36
2022/06/08 08:37:20;;;;;;;3.63;2.00;;;;;;;18.15;88.81;100698.59;5072734;28;20376;-35
2022/06/08 08:39:45;;;;;;;;;;;;;;;18.21;90.91;100700.22;5073372;28;20066;-35
2022/06/08 08:42:20;;;;;;;8.10;2.10;;;;;;;18.02;89.46;100696.53;5073231;28;19908;-35
2022/06/08 08:44:49;;;;;;;5.35;2.00;;;;;;;17.93;89.97;100690.00;5073146;28;20511;-36
2022/06/08 08:47:48;;;;;;;7.35;1.90;;;;;;;18.01;91.79;100692.16;5073151;28;20074;-36
2022/06/08 08:50:30;;;;;;;6.57;1.88;;;;;;;17.92;90.90;100704.81;5072857;28;20162;-35
2022/06/08 08:53:16;;;;;;;4.47;2.17;;;;;;;17.86;90.45;100697.69;5073481;28;20052;-36
2022/06/08 08:55:44;;;;;;;5.38;2.10;;;;;;;17.79;88.87;100699.94;5072958;28;20044;-36
2022/06/08 08:58:15;;;;;;;7.07;2.20;;;;;;;17.77;89.76;100700.25;5072372;28;20111;-36
2022/06/08 09:00:52;;;;;;;5.75;2.20;;;;;;;17.83;90.97;100695.56;5073200;28;20517;-36
2022/06/08 09:03:31;;;;;;;4.22;2.05;;;;;;;17.74;90.24;100687.13;5072625;28;20052;-36
2022/06/08 09:06:14;;;;;;;5.18;1.88;;;;;;;17.91;90.71;100705.88;5073114;28;20028;-36
2022/06/08 09:08:43;;;;;;;3.72;1.90;;;;;;;17.84;89.59;100713.59;5072917;28;20028;-36
2022/06/08 09:11:35;;;;;;;6.63;2.10;;;;;;;17.88;90.75;100701.81;5072771;28;20032;-36
2022/06/08 09:14:23;;;;;;;5.90;2.20;;;;;;;17.84;89.46;100702.66;5072904;28;20369;-36
2022/06/08 09:16:51;;;;;;;4.13;1.80;;;;;;;17.79;87.33;100713.63;5072602;28;20025;-36
2022/06/08 09:19:36;;;;;;;5.45;2.00;;;;;;;17.74;87.98;100703.53;5074272;28;20397;-35
2022/06/08 09:22:04;;;;;;;3.85;1.67;;;;;;;17.67;87.84;100711.22;5077238;28;20115;-36
2022/06/08 09:24:45;;;;;;;4.55;1.83;;;;;;;17.65;87.85;100711.47;5077151;28;20113;-36
2022/06/08 09:27:35;;;;;;;3.42;1.80;;;;;;;17.62;89.52;100706.56;5076459;28;20060;-36
2022/06/08 09:30:24;;;;;;;6.45;1.95;;;;;;;17.62;90.13;100705.75;5076219;28;20647;-36
2022/06/08 09:32:59;;;;;;;4.43;1.92;;;;;;;17.49;90.77;100693.50;5076700;28;20194;-36
2022/06/08 09:35:53;;;;;;;5.32;1.80;;;;;;;17.57;91.67;100705.75;5076261;28;20461;-36
2022/06/08 09:38:21;;;;;;;3.38;1.80;;;;;;;17.54;91.83;100709.88;5073144;28;20037;-36
2022/06/08 09:40:56;;;;;;;6.03;2.17;;;;;;;17.55;93.09;100707.97;5076068;28;20040;-36
2022/06/08 09:43:33;;;;;;;3.92;1.70;;;;;;;17.48;93.35;100711.03;5076837;28;20032;-36
2022/06/08 09:46:10;;;;;;;6.22;2.47;;;;;;;17.35;92.73;100703.41;5075721;28;20029;-36
2022/06/08 09:51:48;;;;;;;5.97;2.07;;;;;;;17.21;94.01;100701.25;5053600;28;20090;-36
2022/06/08 09:54:38;;;;;;;4.10;2.00;;;;;;;17.28;94.64;100709.19;5053405;28;20259;-36
2022/06/08 09:57:38;;;;;;;7.38;1.83;;;;;;;17.29;95.19;100704.53;5054050;28;20440;-36
2022/06/08 10:00:45;;;;;;;5.35;2.28;;;;;;;17.33;96.75;100709.16;5054068;28;20471;-36
2022/06/08 10:03:32;;;;;;;5.80;1.80;;;;;;;17.24;95.07;100717.13;4994568;28;20168;-36
2022/06/08 10:06:16;;;;;;;8.93;1.92;;;;;;;17.22;94.24;100711.09;4994422;28;20035;-36
2022/06/08 10:08:59;;;;;;;5.97;2.25;;;;;;;17.21;94.49;100712.19;4994238;28;20034;-36
2022/06/08 10:11:40;;;;;;;5.45;2.03;;;;;;;17.23;97.53;100712.75;4994034;28;20107;-36
2022/06/08 10:14:12;;;;;;;7.03;2.20;;;;;;;17.18;94.94;100710.03;4994130;28;20094;-36
2022/06/08 10:16:44;;;;;;;6.72;2.03;;;;;;;17.11;95.72;100711.41;4994451;28;20035;-36
2022/06/08 10:19:17;;;;;;;5.95;2.25;;;;;;;17.02;96.44;100713.88;4993735;28;20034;-36
2022/06/08 10:21:44;;;;;;;7.03;2.03;;;;;;;17.07;96.19;100713.06;4993724;28;20085;-36
2022/06/08 10:24:19;;;;;;;6.05;1.88;;;;;;;17.01;96.16;100714.19;4993512;28;20034;-36
2022/06/08 10:27:13;;;;;;;4.38;1.90;;;;;;;17.06;98.19;100716.88;4993490;28;20050;-36
2022/06/08 10:30:04;;;;;;;4.35;2.05;;;;;;;16.97;97.82;100700.25;4992972;28;20034;-36
2022/06/08 10:32:34;;;;;;;6.47;2.45;;;;;;;16.90;98.08;100716.94;4993435;28;20058;-36
2022/06/08 10:35:16;;;;;;;5.93;2.33;;;;;;;16.83;98.28;100715.56;5070501;28;20044;-36
2022/06/08 10:37:43;;;;;;;6.75;2.25;;;;;;;16.78;98.26;100712.84;5075301;28;20032;-36
2022/06/08 10:40:23;;;;;;;7.00;2.00;;;;;;;16.72;98.54;100710.13;5074998;28;20036;-36
2022/06/08 10:42:50;;;;;;;5.70;2.00;;;;;;;16.65;99.15;100703.28;5075062;28;20029;-36
2022/06/08 10:45:33;;;;;;;5.22;1.60;;;;;;;16.65;98.65;100716.94;5075142;28;20051;-36
2022/06/08 10:48:10;;;;;;;7.65;2.13;;;;;;;16.48;99.10;100707.09;5074014;28;20071;-36
2022/06/08 10:50:48;;;;;;;5.13;1.67;;;;;;;16.45;100.00;100717.78;5074471;28;20036;-36
2022/06/08 10:56:28;;;;;;;4.70;2.20;;;;;;;16.49;100.00;100716.09;5074977;28;20106;-36
2022/06/08 10:59:06;;;;;;;6.30;2.00;;;;;;;16.45;100.00;100704.13;5074850;28;20028;-37
2022/06/08 11:01:49;;;;;;;7.40;2.20;;;;;;;16.41;100.00;100709.31;5074808;28;20036;-35
2022/06/08 11:04:26;;;;;;;7.35;1.75;;;;;;;16.33;100.00;100698.91;5074602;28;20059;-35
2022/06/08 11:07:10;;;;;;;6.15;2.15;;;;;;;16.30;100.00;100690.47;5075122;28;20070;-35
2022/06/08 11:09:36;;;;;;;6.57;2.67;;;;;;;16.39;100.00;100707.94;5074179;28;20029;-35
2022/06/08 11:12:04;;;;;;;4.37;1.83;;;;;;;16.33;100.00;100690.75;5074363;28;20032;-35
2022/06/08 11:14:57;;;;;;;8.75;2.08;;;;;;;16.37;100.00;100697.28;5074188;28;20523;-35
2022/06/08 11:17:41;;;;;;;6.53;2.25;;;;;;;16.40;100.00;100695.94;5074503;28;20025;-35
2022/06/08 11:20:28;;;;;;;4.18;2.17;;;;;;;16.41;100.00;100690.19;5074434;28;20078;-35
2022/06/08 11:23:12;;;;;;;6.78;2.17;;;;;;;16.43;100.00;100685.28;5074143;28;20085;-36
2022/06/08 11:26:25;;;;;;;6.43;1.83;;;;;;;16.41;100.00;100678.47;5074078;28;20021;-35
2022/06/08 11:28:57;;;;;;;7.82;1.83;;;;;;;16.32;100.00;100680.09;5051593;28;20108;-35
2022/06/08 11:31:25;;;;;;;4.32;1.70;;;;;;;16.22;99.13;100667.28;5051457;28;20036;-36
2022/06/08 11:34:06;;;;;;;5.05;1.40;;;;;;;16.29;100.00;100667.00;5051382;28;20051;-36
2022/06/08 11:36:50;;;;;;;5.43;1.40;;;;;;;16.21;100.00;100674.66;5051754;28;20037;-35
2022/06/08 11:39:36;;;;;;;5.15;1.73;;;;;;;16.15;100.00;100667.56;5051591;28;20041;-36
2022/06/08 11:42:24;;;;;;;4.65;1.52;;;;;;;16.21;100.00;100658.28;5051199;28;20132;-35
2022/06/08 11:44:55;;;;;;;6.18;1.90;;;;;;;16.17;100.00;100649.00;5051815;28;20116;-36
2022/06/08 11:47:40;;;;;;;3.75;1.40;;;;;;;16.27;100.00;100655.56;5051629;28;20090;-35
2022/06/08 11:50:14;;;;;;;4.60;1.50;;;;;;;16.31;100.00;100652.00;5051660;28;20402;-36
2022/06/08 11:52:42;;;;;;;5.75;1.70;;;;;;;16.22;100.00;100651.72;5051160;28;20159;-36
2022/06/08 11:55:23;;;;;;;3.60;1.40;;;;;;;16.22;100.00;100645.47;5051635;28;20480;-35
2022/06/08 11:57:59;;;;;;;4.40;1.55;;;;;;;16.19;100.00;100641.34;5051698;28;20052;-36
2022/06/08 12:00:34;;;;;;;6.30;1.98;;;;;;;16.27;100.00;100642.72;5051523;28;20047;-36